createdAt,value
2024-02-10T00:01:29.235Z,11.32
2024-02-10T00:03:58.183Z,13.18
2024-02-10T00:06:25.242Z,12.60
2024-02-10T00:08:52.306Z,11.12
2024-02-10T00:11:19.209Z,11.25
2024-02-10T00:13:46.159Z,10.68
2024-02-10T00:16:13.160Z,9.85
2024-02-10T00:18:42.306Z,11.18
2024-02-10T00:21:09.503Z,11.95
2024-02-10T00:23:36.513Z,9.07
2024-02-10T00:26:05.753Z,9.50
2024-02-10T00:28:36.559Z,13.80
2024-02-10T00:31:03.601Z,9.65
2024-02-10T00:33:32.158Z,11.12
2024-02-10T00:35:59.209Z,11.38
2024-02-10T00:38:26.192Z,6.55
2024-02-10T00:40:53.263Z,14.07
2024-02-10T00:43:20.924Z,11.77
2024-02-10T00:45:48.599Z,10.10
2024-02-10T00:48:16.004Z,11.85
2024-02-10T00:50:43.983Z,10.50
2024-02-10T00:53:10.983Z,8.77
2024-02-10T00:55:37.944Z,10.60
2024-02-10T00:58:07.751Z,8.43
2024-02-10T01:00:35.679Z,9.70
2024-02-10T01:03:03.892Z,11.43
2024-02-10T01:05:31.622Z,7.30
2024-02-10T01:08:01.174Z,8.43
2024-02-10T01:10:32.362Z,9.35
2024-02-10T01:13:04.926Z,7.30
2024-02-10T01:15:34.056Z,10.05
2024-02-10T01:18:05.594Z,13.90
2024-02-10T01:20:32.578Z,10.43
2024-02-10T01:23:01.108Z,10.25
2024-02-10T01:25:32.015Z,7.90
2024-02-10T01:27:59.942Z,10.00
2024-02-10T01:30:27.998Z,15.27
2024-02-10T01:33:00.167Z,11.50
2024-02-10T01:35:27.590Z,11.38
2024-02-10T01:37:54.558Z,9.07
2024-02-10T01:40:21.510Z,9.15
2024-02-10T01:42:48.409Z,7.20
2024-02-10T01:45:15.890Z,12.20
2024-02-10T01:47:46.945Z,8.02
2024-02-10T01:50:14.778Z,8.52
2024-02-10T01:52:42.147Z,11.90
2024-02-10T01:55:11.116Z,8.65
2024-02-10T01:57:38.570Z,8.52
2024-02-10T02:00:06.857Z,13.30
2024-02-10T02:02:36.747Z,10.05
2024-02-10T02:05:06.808Z,9.63
2024-02-10T02:07:34.252Z,8.70
2024-02-10T02:10:02.557Z,15.60
2024-02-10T02:12:30.122Z,12.85
2024-02-10T02:14:58.859Z,11.80
2024-02-10T02:17:26.563Z,9.48
2024-02-10T02:19:53.937Z,8.85
2024-02-10T02:22:21.502Z,8.23
2024-02-10T02:24:48.984Z,10.50
2024-02-10T02:27:16.698Z,14.65
2024-02-10T02:29:43.870Z,10.13
2024-02-10T02:32:12.183Z,8.77
2024-02-10T02:34:39.763Z,11.20
2024-02-10T02:37:08.635Z,7.32
2024-02-10T02:39:37.523Z,9.82
2024-02-10T02:42:07.021Z,16.08
2024-02-10T02:44:34.346Z,6.72
2024-02-10T02:47:06.994Z,9.18
2024-02-10T02:49:39.145Z,9.00
2024-02-10T02:52:09.107Z,7.35
2024-02-10T02:54:36.938Z,11.40
2024-02-10T02:57:06.241Z,9.68
2024-02-10T02:59:33.130Z,8.07
2024-02-10T03:02:03.944Z,9.27
2024-02-10T03:04:30.973Z,9.88
2024-02-10T03:06:58.993Z,14.32
2024-02-10T03:09:25.914Z,7.80
2024-02-10T03:11:52.799Z,8.57
2024-02-10T03:14:19.734Z,10.90
2024-02-10T03:16:46.950Z,8.65
2024-02-10T03:19:13.940Z,8.82
2024-02-10T03:21:40.777Z,8.88
2024-02-10T03:26:36.982Z,7.22
2024-02-10T03:29:04.067Z,12.75
2024-02-10T03:31:31.331Z,8.98
2024-02-10T03:33:58.528Z,10.63
2024-02-10T03:36:28.649Z,7.87
2024-02-10T03:38:56.102Z,8.13
2024-02-10T03:41:23.177Z,8.57
2024-02-10T03:43:50.186Z,7.68
2024-02-10T03:46:23.149Z,7.03
2024-02-10T03:48:51.502Z,10.65
2024-02-10T03:51:18.405Z,9.45
2024-02-10T03:53:45.223Z,11.75
2024-02-10T03:58:42.928Z,7.37
2024-02-10T04:01:16.804Z,8.13
2024-02-10T04:03:47.362Z,10.57
2024-02-10T04:06:17.701Z,7.55
2024-02-10T04:08:48.429Z,7.43
2024-02-10T04:11:18.439Z,8.57
2024-02-10T04:13:46.122Z,9.32
2024-02-10T04:16:14.242Z,7.20
2024-02-10T04:18:42.383Z,7.37
2024-02-10T04:21:10.258Z,9.02
2024-02-10T04:23:40.556Z,7.87
2024-02-10T04:26:07.442Z,11.65
2024-02-10T04:28:37.508Z,10.50
2024-02-10T04:31:06.734Z,9.88
2024-02-10T04:33:33.682Z,8.40
2024-02-10T04:36:00.650Z,7.82
2024-02-10T04:38:27.650Z,7.55
2024-02-10T04:40:55.027Z,9.32
2024-02-10T04:43:22.146Z,9.65
2024-02-10T04:45:50.565Z,11.18
2024-02-10T04:48:21.683Z,8.77
2024-02-10T04:50:48.966Z,12.00
2024-02-10T04:53:18.932Z,10.60
2024-02-10T04:55:46.293Z,7.03
2024-02-10T04:58:14.878Z,8.82
2024-02-10T05:00:42.573Z,9.02
2024-02-10T05:03:09.835Z,9.38
2024-02-10T05:05:36.985Z,8.02
2024-02-10T05:08:04.179Z,10.23
2024-02-10T05:10:31.193Z,9.10
2024-02-10T05:12:58.481Z,10.63
2024-02-10T05:15:27.047Z,9.90
2024-02-10T05:17:55.007Z,7.90
2024-02-10T05:20:24.075Z,9.75
2024-02-10T05:22:52.731Z,9.13
2024-02-10T05:25:21.248Z,9.43
2024-02-10T05:27:51.839Z,8.40
2024-02-10T05:30:25.938Z,10.27
2024-02-10T05:32:54.333Z,6.10
2024-02-10T05:35:21.705Z,11.68
2024-02-10T05:37:55.315Z,9.63
2024-02-10T05:40:23.225Z,10.38
2024-02-10T05:42:54.195Z,10.07
2024-02-10T05:45:21.808Z,8.60
2024-02-10T05:47:52.419Z,11.57
2024-02-10T05:50:24.333Z,8.38
2024-02-10T05:52:52.881Z,10.25
2024-02-10T05:55:22.995Z,7.72
2024-02-10T05:57:50.051Z,8.00
2024-02-10T06:00:17.624Z,10.05
2024-02-10T06:02:44.502Z,8.43
2024-02-10T06:05:15.526Z,9.73
2024-02-10T06:07:43.652Z,8.15
2024-02-10T06:10:14.048Z,12.23
2024-02-10T06:12:50.180Z,8.50
2024-02-10T06:15:20.623Z,7.53
2024-02-10T06:17:50.222Z,10.35
2024-02-10T06:20:17.313Z,11.90
2024-02-10T06:22:49.540Z,10.70
2024-02-10T06:25:17.092Z,8.10
2024-02-10T06:27:47.132Z,7.07
2024-02-10T06:30:18.551Z,7.93
2024-02-10T06:32:46.051Z,7.12
2024-02-10T06:35:13.964Z,6.82
2024-02-10T06:37:52.891Z,7.22
2024-02-10T06:40:20.120Z,8.43
2024-02-10T06:42:51.982Z,8.70
2024-02-10T06:45:23.399Z,7.28
2024-02-10T06:47:53.902Z,8.52
2024-02-10T06:50:30.057Z,9.32
2024-02-10T06:53:01.699Z,10.00
2024-02-10T06:55:29.859Z,11.12
2024-02-10T06:57:57.472Z,7.70
2024-02-10T07:00:24.654Z,6.57
2024-02-10T07:02:53.048Z,6.65
2024-02-10T07:05:21.322Z,8.02
2024-02-10T07:07:50.105Z,9.38
2024-02-10T07:10:21.790Z,7.65
2024-02-10T07:12:50.594Z,6.93
2024-02-10T07:15:19.983Z,9.82
2024-02-10T07:17:48.927Z,7.45
2024-02-10T07:20:26.908Z,8.25
2024-02-10T07:22:57.812Z,9.05
2024-02-10T07:25:26.952Z,5.85
2024-02-10T07:27:54.689Z,8.32
2024-02-10T07:30:22.077Z,7.57
2024-02-10T07:32:49.522Z,7.37
2024-02-10T07:35:17.836Z,9.38
2024-02-10T07:37:46.244Z,6.87
2024-02-10T07:40:13.483Z,7.22
2024-02-10T07:42:40.687Z,8.38
2024-02-10T07:45:08.041Z,10.55
2024-02-10T07:47:35.220Z,7.00
2024-02-10T07:50:04.556Z,9.63
2024-02-10T07:52:33.113Z,9.07
2024-02-10T07:55:00.481Z,9.32
2024-02-10T07:57:27.907Z,7.22
2024-02-10T07:59:56.008Z,6.22
2024-02-10T08:02:26.814Z,7.93
2024-02-10T08:04:59.202Z,6.22
2024-02-10T08:07:31.714Z,8.38
2024-02-10T08:09:59.703Z,10.60
2024-02-10T08:12:27.817Z,7.32
2024-02-10T08:14:56.077Z,6.25
2024-02-10T08:17:25.550Z,10.55
2024-02-10T08:19:52.729Z,10.07
2024-02-10T08:22:20.327Z,8.80
2024-02-10T08:24:48.731Z,10.65
2024-02-10T08:27:16.502Z,8.80
2024-02-10T08:29:44.069Z,6.15
2024-02-10T08:32:17.537Z,12.40
2024-02-10T08:34:44.657Z,10.95
2024-02-10T08:37:13.628Z,8.95
2024-02-10T08:39:41.541Z,7.93
2024-02-10T08:42:11.279Z,7.10
2024-02-10T08:44:38.473Z,8.43
2024-02-10T08:47:07.659Z,7.65
2024-02-10T08:49:39.637Z,7.57
2024-02-10T08:52:16.493Z,7.18
2024-02-10T08:54:44.774Z,8.30
2024-02-10T08:57:11.802Z,7.62
2024-02-10T08:59:43.350Z,9.90
2024-02-10T09:02:10.953Z,8.75
2024-02-10T09:04:41.694Z,7.57
2024-02-10T09:07:09.263Z,9.57
2024-02-10T09:09:36.804Z,8.73
2024-02-10T09:12:04.419Z,10.32
2024-02-10T09:14:31.400Z,8.73
2024-02-10T09:16:58.590Z,10.82
2024-02-10T09:19:25.657Z,11.70
2024-02-10T09:21:59.588Z,8.73
2024-02-10T09:24:27.925Z,9.15
2024-02-10T09:26:55.931Z,8.52
2024-02-10T09:29:22.998Z,9.75
2024-02-10T09:31:54.068Z,10.77
2024-02-10T09:34:23.797Z,7.35
2024-02-10T09:36:50.732Z,8.00
2024-02-10T09:39:17.565Z,10.73
2024-02-10T09:41:44.625Z,9.23
2024-02-10T09:44:12.769Z,12.18
2024-02-10T09:46:40.344Z,12.37
2024-02-10T09:49:11.311Z,10.80
2024-02-10T09:51:45.277Z,10.10
2024-02-10T09:54:15.260Z,11.60
2024-02-10T09:56:44.541Z,8.57
2024-02-10T09:59:15.861Z,12.20
2024-02-10T10:01:42.932Z,10.73
2024-02-10T10:04:13.812Z,9.50
2024-02-10T10:06:44.984Z,8.55
2024-02-10T10:09:19.576Z,10.18
2024-02-10T10:11:47.379Z,8.85
2024-02-10T10:14:18.493Z,10.40
2024-02-10T10:16:59.394Z,10.02
2024-02-10T10:19:31.304Z,10.93
2024-02-10T10:21:59.510Z,11.88
2024-02-10T10:24:27.590Z,8.90
2024-02-10T10:26:55.662Z,18.50
2024-02-10T10:29:23.254Z,7.72
2024-02-10T10:31:50.996Z,9.88
2024-02-10T10:34:21.532Z,9.95
2024-02-10T10:36:52.181Z,10.82
2024-02-10T10:39:19.419Z,9.90
2024-02-10T10:41:46.958Z,10.15
2024-02-10T10:44:18.299Z,18.35
2024-02-10T10:46:46.904Z,11.10
2024-02-10T10:49:15.655Z,8.98
2024-02-10T10:52:00.867Z,10.18
2024-02-10T10:54:35.320Z,12.48
2024-02-10T10:57:07.141Z,8.32
2024-02-10T10:59:38.420Z,9.55
2024-02-10T11:02:08.906Z,7.75
2024-02-10T11:04:36.308Z,8.60
2024-02-10T11:07:14.837Z,12.25
2024-02-10T11:09:47.791Z,11.70
2024-02-10T11:12:17.882Z,7.55
2024-02-10T11:14:55.321Z,8.00
2024-02-10T11:17:22.289Z,8.00
2024-02-10T11:20:04.986Z,7.57
2024-02-10T11:22:38.947Z,7.20
2024-02-10T11:25:17.674Z,9.10
2024-02-10T11:27:48.319Z,8.13
2024-02-10T11:30:15.303Z,9.48
2024-02-10T11:32:50.564Z,10.52
2024-02-10T11:35:17.762Z,7.47
2024-02-10T11:37:44.884Z,8.68
2024-02-10T11:40:17.122Z,9.25
2024-02-10T11:42:44.906Z,10.88
2024-02-10T11:45:12.318Z,10.52
2024-02-10T11:47:39.347Z,9.07
2024-02-10T11:50:07.978Z,11.43
2024-02-10T11:52:37.694Z,11.18
2024-02-10T11:55:05.654Z,13.55
2024-02-10T11:57:32.577Z,9.75
2024-02-10T11:59:59.612Z,9.82
2024-02-10T12:02:27.992Z,12.27
2024-02-10T12:04:55.197Z,13.02
2024-02-10T12:07:22.385Z,9.73
2024-02-10T12:09:49.385Z,14.43
2024-02-10T12:12:17.281Z,12.35
2024-02-10T12:14:44.338Z,12.80
2024-02-10T12:17:11.288Z,12.63
2024-02-10T12:19:41.862Z,11.93
2024-02-10T12:22:11.002Z,12.20
2024-02-10T12:24:39.106Z,11.50
2024-02-10T12:27:05.888Z,12.35
2024-02-10T12:29:32.816Z,10.60
2024-02-10T12:31:59.713Z,13.43
2024-02-10T12:34:27.017Z,13.95
2024-02-10T12:36:53.901Z,13.40
2024-02-10T12:39:21.368Z,11.45
2024-02-10T12:41:48.349Z,11.52
2024-02-10T12:44:15.231Z,13.02
2024-02-10T12:46:42.158Z,15.55
2024-02-10T12:49:09.929Z,12.35
2024-02-10T12:51:37.015Z,14.05
2024-02-10T12:54:03.945Z,14.52
2024-02-10T12:56:31.112Z,14.40
2024-02-10T12:58:58.623Z,16.70
2024-02-10T13:01:27.144Z,12.50
2024-02-10T13:03:54.191Z,13.88
2024-02-10T13:06:21.651Z,15.05
2024-02-10T13:08:50.813Z,11.38
2024-02-10T13:11:18.135Z,13.90
2024-02-10T13:13:46.011Z,11.38
2024-02-10T13:16:13.160Z,12.48
2024-02-10T13:18:45.382Z,14.32
2024-02-10T13:21:18.041Z,12.48
2024-02-10T13:23:45.683Z,13.90
2024-02-10T13:26:15.600Z,16.00
2024-02-10T13:28:44.641Z,16.42
2024-02-10T13:31:12.013Z,12.55
2024-02-10T13:33:42.274Z,15.93
2024-02-10T13:36:17.311Z,11.32
2024-02-10T13:39:02.731Z,12.40
2024-02-10T13:41:48.025Z,16.02
2024-02-10T13:44:33.326Z,15.30
2024-02-10T13:47:21.978Z,13.38
2024-02-10T13:50:07.490Z,17.67
2024-02-10T13:52:53.229Z,10.98
2024-02-10T13:55:38.969Z,12.52
2024-02-10T13:58:12.163Z,16.15
2024-02-10T14:00:42.249Z,11.30
2024-02-10T14:03:13.225Z,19.67
2024-02-10T14:05:53.876Z,13.45
2024-02-10T14:08:36.717Z,10.77
2024-02-10T14:11:21.787Z,11.50
2024-02-10T14:13:53.343Z,13.55
2024-02-10T14:16:29.654Z,21.40
2024-02-10T14:19:03.253Z,15.13
2024-02-10T14:21:40.199Z,13.45
2024-02-10T14:24:07.711Z,9.50
2024-02-10T14:26:53.446Z,13.80
2024-02-10T14:29:37.906Z,14.23
2024-02-10T14:32:12.021Z,13.80
2024-02-10T14:34:59.804Z,21.35
2024-02-10T14:37:45.946Z,13.57
2024-02-10T14:40:20.772Z,14.82
2024-02-10T14:42:48.890Z,14.30
2024-02-10T14:45:20.536Z,13.60
2024-02-10T14:47:47.445Z,14.63
2024-02-10T14:50:17.862Z,15.70
2024-02-10T14:52:45.927Z,13.27
2024-02-10T14:55:15.783Z,13.00
2024-02-10T14:57:44.000Z,18.23
2024-02-10T15:00:14.164Z,13.73
2024-02-10T15:02:41.593Z,13.30
2024-02-10T15:05:11.664Z,16.15
2024-02-10T15:07:38.703Z,13.23
2024-02-10T15:10:06.075Z,17.48
2024-02-10T15:12:32.890Z,18.90
2024-02-10T15:15:00.275Z,15.10
2024-02-10T15:17:27.445Z,14.90
2024-02-10T15:19:54.539Z,14.80
2024-02-10T15:22:21.481Z,12.52
2024-02-10T15:24:48.400Z,15.48
2024-02-10T15:27:16.831Z,13.43
2024-02-10T15:29:43.765Z,14.40
2024-02-10T15:32:11.195Z,14.73
2024-02-10T15:34:47.831Z,16.33
2024-02-10T15:37:18.710Z,18.67
2024-02-10T15:39:45.517Z,17.73
2024-02-10T15:42:12.655Z,20.60
2024-02-10T15:44:39.517Z,30.10
2024-02-10T15:47:06.428Z,34.70
2024-02-10T15:49:35.428Z,33.90
2024-02-10T15:52:02.239Z,33.42
2024-02-10T15:54:29.075Z,36.28
2024-02-10T15:56:59.634Z,35.55
2024-02-10T15:59:27.031Z,52.25
2024-02-10T16:01:55.613Z,48.45
2024-02-10T16:04:23.462Z,45.75
2024-02-10T16:06:51.206Z,42.08
2024-02-10T16:09:21.108Z,31.75
2024-02-10T16:11:48.024Z,33.45
2024-02-10T16:14:15.050Z,25.27
2024-02-10T16:16:42.052Z,27.92
2024-02-10T16:19:09.148Z,22.98
2024-02-10T16:21:36.089Z,24.73
2024-02-10T16:24:06.765Z,22.85
2024-02-10T16:26:34.312Z,24.55
2024-02-10T16:29:01.247Z,25.67
2024-02-10T16:31:28.174Z,29.17
2024-02-10T16:33:59.543Z,28.05
2024-02-10T16:36:30.870Z,28.60
2024-02-10T16:38:58.249Z,24.75
2024-02-10T16:41:27.843Z,29.33
2024-02-10T16:43:54.802Z,37.10
2024-02-10T16:46:23.627Z,30.65
2024-02-10T16:48:51.515Z,33.67
2024-02-10T16:51:34.433Z,30.70
2024-02-10T16:54:07.212Z,27.67
2024-02-10T16:56:37.555Z,22.58
2024-02-10T16:59:04.897Z,22.83
2024-02-10T17:01:32.401Z,19.58
2024-02-10T17:03:59.411Z,29.52
2024-02-10T17:06:26.323Z,25.12
2024-02-10T17:08:53.132Z,25.62
2024-02-10T17:11:19.989Z,27.80
2024-02-10T17:13:48.075Z,32.33
2024-02-10T17:16:16.894Z,23.80
2024-02-10T17:18:43.905Z,19.87
2024-02-10T17:21:10.821Z,19.75
2024-02-10T17:23:37.616Z,21.58
2024-02-10T17:26:08.481Z,20.05
2024-02-10T17:28:35.506Z,22.17
2024-02-10T17:31:02.454Z,17.17
2024-02-10T17:33:29.310Z,19.52
2024-02-10T17:35:56.288Z,19.00
2024-02-10T17:38:27.123Z,16.70
2024-02-10T17:40:57.185Z,17.45
2024-02-10T17:43:25.249Z,17.02
2024-02-10T17:45:53.888Z,17.23
2024-02-10T17:48:25.084Z,16.60
2024-02-10T17:50:54.133Z,16.77
2024-02-10T17:53:24.287Z,16.95
2024-02-10T17:55:57.377Z,16.20
2024-02-10T17:58:30.378Z,16.15
2024-02-10T18:00:57.812Z,15.05
2024-02-10T18:03:26.278Z,19.60
2024-02-10T18:05:57.778Z,22.85
2024-02-10T18:08:25.188Z,18.98
2024-02-10T18:10:52.331Z,24.67
2024-02-10T18:13:21.418Z,20.12
2024-02-10T18:15:48.423Z,24.55
2024-02-10T18:18:15.474Z,26.00
2024-02-10T18:20:42.443Z,22.80
2024-02-10T18:23:11.591Z,43.97
2024-02-10T18:25:43.583Z,48.60
2024-02-10T18:28:14.682Z,49.88
2024-02-10T18:30:46.432Z,44.75
2024-02-10T18:33:16.200Z,54.47
2024-02-10T18:35:44.086Z,44.83
2024-02-10T18:38:13.152Z,25.33
2024-02-10T18:40:40.398Z,17.40
2024-02-10T18:43:07.517Z,15.60
2024-02-10T18:45:35.553Z,11.70
2024-02-10T18:48:03.556Z,17.98
2024-02-10T18:50:31.398Z,13.48
2024-02-10T18:52:58.926Z,16.70
2024-02-10T18:55:26.538Z,14.02
2024-02-10T18:57:53.632Z,18.15
2024-02-10T19:00:21.134Z,14.98
2024-02-10T19:02:49.560Z,16.17
2024-02-10T19:05:17.704Z,21.08
2024-02-10T19:07:45.477Z,16.17
2024-02-10T19:10:12.547Z,11.82
2024-02-10T19:12:39.673Z,15.88
2024-02-10T19:15:11.126Z,18.55
2024-02-10T19:17:39.080Z,14.98
2024-02-10T19:20:12.518Z,12.00
2024-02-10T19:22:40.283Z,13.18
2024-02-10T19:25:08.170Z,15.05
2024-02-10T19:27:40.038Z,14.05
2024-02-10T19:30:11.441Z,14.80
2024-02-10T19:32:42.838Z,18.30
2024-02-10T19:35:21.319Z,13.48
2024-02-10T19:37:49.203Z,16.00
2024-02-10T19:40:20.647Z,22.45
2024-02-10T19:42:48.582Z,19.87
2024-02-10T19:45:17.702Z,16.23
2024-02-10T19:47:49.644Z,18.95
2024-02-10T19:50:19.628Z,20.12
2024-02-10T19:52:47.751Z,24.40
2024-02-10T19:55:15.795Z,18.17
2024-02-10T19:57:43.052Z,19.62
2024-02-10T20:00:16.670Z,21.40
2024-02-10T20:02:44.740Z,16.05
2024-02-10T20:05:13.629Z,15.80
2024-02-10T20:07:42.680Z,14.10
2024-02-10T20:10:10.441Z,13.85
2024-02-10T20:12:39.961Z,15.45
2024-02-10T20:15:07.593Z,15.73
2024-02-10T20:17:34.585Z,14.57
2024-02-10T20:20:08.261Z,19.08
2024-02-10T20:22:35.688Z,19.45
2024-02-10T20:25:05.795Z,14.27
2024-02-10T20:27:32.640Z,14.70
2024-02-10T20:30:00.525Z,16.60
2024-02-10T20:32:28.068Z,16.60
2024-02-10T20:34:55.271Z,12.45
2024-02-10T20:37:22.192Z,17.00
2024-02-10T20:39:50.790Z,15.18
2024-02-10T20:42:18.743Z,16.45
2024-02-10T20:44:48.417Z,13.38
2024-02-10T20:47:15.943Z,10.45
2024-02-10T20:49:44.050Z,9.10
2024-02-10T20:52:12.814Z,13.02
2024-02-10T20:54:39.615Z,14.20
2024-02-10T20:57:07.316Z,11.20
2024-02-10T20:59:34.249Z,15.25
2024-02-10T21:02:01.170Z,14.65
2024-02-10T21:04:28.225Z,15.55
2024-02-10T21:06:55.582Z,12.60
2024-02-10T21:09:24.995Z,16.25
2024-02-10T21:11:51.899Z,12.75
2024-02-10T21:14:18.807Z,14.10
2024-02-10T21:16:47.718Z,15.18
2024-02-10T21:19:15.388Z,14.32
2024-02-10T21:21:43.017Z,14.32
2024-02-10T21:24:10.108Z,18.65
2024-02-10T21:26:37.592Z,14.98
2024-02-10T21:29:07.426Z,14.02
2024-02-10T21:31:37.719Z,11.55
2024-02-10T21:34:06.101Z,11.35
2024-02-10T21:36:35.840Z,10.52
2024-02-10T21:39:19.444Z,10.52
2024-02-10T21:41:49.082Z,16.52
2024-02-10T21:44:16.368Z,18.17
2024-02-10T21:46:43.496Z,17.80
2024-02-10T21:49:11.126Z,11.80
2024-02-10T21:51:38.719Z,15.48
2024-02-10T21:54:06.793Z,16.25
2024-02-10T21:56:42.910Z,14.80
2024-02-10T21:59:12.912Z,14.43
2024-02-10T22:01:40.431Z,13.55
2024-02-10T22:04:08.604Z,16.27
2024-02-10T22:06:35.706Z,14.90
2024-02-10T22:09:06.112Z,15.27
2024-02-10T22:11:33.235Z,13.70
2024-02-10T22:14:00.560Z,13.73
2024-02-10T22:16:27.627Z,16.10
2024-02-10T22:18:55.164Z,13.62
2024-02-10T22:21:23.561Z,19.12
2024-02-10T22:23:51.428Z,18.55
2024-02-10T22:26:22.777Z,16.02
2024-02-10T22:28:49.745Z,16.23
2024-02-10T22:31:17.388Z,14.25
2024-02-10T22:33:44.553Z,16.23
2024-02-10T22:36:12.710Z,15.38
2024-02-10T22:38:40.051Z,16.87
2024-02-10T22:41:07.751Z,12.77
2024-02-10T22:43:34.804Z,15.38
2024-02-10T22:46:01.866Z,16.08
2024-02-10T22:48:28.859Z,18.70
2024-02-10T22:50:55.783Z,20.73
2024-02-10T22:53:23.625Z,21.48
2024-02-10T22:55:50.605Z,19.02
2024-02-10T22:58:17.690Z,15.05
2024-02-10T23:00:54.661Z,15.18
2024-02-10T23:03:21.685Z,13.23
2024-02-10T23:05:51.948Z,19.42
2024-02-10T23:08:21.399Z,16.25
2024-02-10T23:10:49.050Z,17.00
2024-02-10T23:13:22.078Z,16.10
2024-02-10T23:15:49.630Z,19.23
2024-02-10T23:18:19.990Z,19.20
2024-02-10T23:20:48.748Z,16.02
2024-02-10T23:23:19.275Z,18.40
2024-02-10T23:25:48.156Z,16.90
2024-02-10T23:28:18.422Z,18.98
2024-02-10T23:30:52.757Z,21.65
2024-02-10T23:33:24.539Z,21.65
2024-02-10T23:35:52.026Z,15.20
2024-02-10T23:38:19.096Z,16.17
2024-02-10T23:40:47.011Z,17.05
2024-02-10T23:43:14.058Z,18.02
2024-02-10T23:45:45.327Z,14.70
2024-02-10T23:48:12.400Z,14.35
2024-02-10T23:50:39.404Z,16.05
2024-02-10T23:53:06.486Z,15.57
2024-02-10T23:55:34.931Z,16.05
2024-02-10T23:58:02.560Z,11.40
